createdAt,value
2018-12-11T00:00:21.495Z,99145.78
2018-12-11T00:02:29.521Z,99145.78
2018-12-11T00:04:36.529Z,99147.44
2018-12-11T00:06:43.958Z,99142.68
2018-12-11T00:08:50.782Z,99143.07
2018-12-11T00:10:57.519Z,99147.89
2018-12-11T00:13:04.414Z,99142.84
2018-12-11T00:15:12.640Z,99145.70
2018-12-11T00:17:19.346Z,99157.91
2018-12-11T00:19:26.297Z,99151.57
2018-12-11T00:21:33.146Z,99150.83
2018-12-11T00:23:39.818Z,99154.33
2018-12-11T00:25:46.514Z,99155.30
2018-12-11T00:27:53.487Z,99153.86
2018-12-11T00:30:00.354Z,99133.27
2018-12-11T00:32:07.522Z,99135.31
2018-12-11T00:34:14.130Z,99123.18
2018-12-11T00:36:21.008Z,99129.91
2018-12-11T00:38:27.989Z,99121.18
2018-12-11T00:40:35.042Z,99118.62
2018-12-11T00:42:41.755Z,99104.76
2018-12-11T00:44:48.727Z,99109.31
2018-12-11T00:46:55.832Z,99119.66
2018-12-11T00:49:02.983Z,99123.16
2018-12-11T00:51:09.700Z,99126.70
2018-12-11T00:53:16.389Z,99128.17
2018-12-11T00:55:23.018Z,99129.52
2018-12-11T00:57:30.013Z,99127.03
2018-12-11T00:59:36.974Z,99130.00
2018-12-11T01:01:43.966Z,99128.45
2018-12-11T01:03:50.784Z,99121.67
2018-12-11T01:05:57.881Z,99118.39
2018-12-11T01:08:04.705Z,99112.25
2018-12-11T01:10:12.005Z,99119.21
2018-12-11T01:12:18.714Z,99116.30
2018-12-11T01:14:25.513Z,99120.89
2018-12-11T01:16:32.648Z,99109.89
2018-12-11T01:18:39.806Z,99101.98
2018-12-11T01:20:46.479Z,99103.03
2018-12-11T01:22:53.232Z,99103.80
2018-12-11T01:24:59.985Z,99109.00
2018-12-11T01:27:06.953Z,99106.62
2018-12-11T01:29:13.818Z,99115.50
2018-12-11T01:31:20.641Z,99112.62
2018-12-11T01:33:27.807Z,99107.42
2018-12-11T01:35:34.493Z,99099.61
2018-12-11T01:37:41.509Z,99092.09
2018-12-11T01:39:48.349Z,99093.89
2018-12-11T01:41:56.543Z,99098.80
2018-12-11T01:44:03.330Z,99096.59
2018-12-11T01:46:10.165Z,99095.71
2018-12-11T01:48:16.985Z,99095.05
2018-12-11T01:50:23.806Z,99094.14
2018-12-11T01:52:30.636Z,99090.99
2018-12-11T01:54:37.723Z,99089.33
2018-12-11T01:56:44.578Z,99091.11
2018-12-11T01:58:51.362Z,99085.58
2018-12-11T02:00:58.141Z,99079.64
2018-12-11T02:03:05.480Z,99078.42
2018-12-11T02:05:12.208Z,99084.97
2018-12-11T02:07:19.174Z,99084.14
2018-12-11T02:09:25.916Z,99079.00
2018-12-11T02:11:32.704Z,99091.05
2018-12-11T02:13:39.648Z,99086.35
2018-12-11T02:15:46.856Z,99083.56
2018-12-11T02:17:53.514Z,99076.09
2018-12-11T02:20:00.538Z,99082.25
2018-12-11T02:22:07.572Z,99082.95
2018-12-11T02:24:14.534Z,99080.03
2018-12-11T02:26:21.334Z,99084.44
2018-12-11T02:28:28.191Z,99075.27
2018-12-11T02:30:35.036Z,99081.39
2018-12-11T02:32:42.377Z,99070.27
2018-12-11T02:34:49.302Z,99073.92
2018-12-11T02:36:56.237Z,99080.56
2018-12-11T02:39:03.776Z,99064.97
2018-12-11T02:41:10.543Z,99064.77
2018-12-11T02:43:17.310Z,99060.61
2018-12-11T02:45:24.065Z,99064.89
2018-12-11T02:47:31.266Z,99057.73
2018-12-11T02:49:38.817Z,99064.15
2018-12-11T02:51:45.626Z,99063.53
2018-12-11T02:53:53.406Z,99056.37
2018-12-11T02:56:00.302Z,99064.09
2018-12-11T02:58:07.155Z,99063.56
2018-12-11T03:00:14.110Z,99068.14
2018-12-11T03:02:21.186Z,99076.57
2018-12-11T03:04:28.266Z,99073.65
2018-12-11T03:06:35.134Z,99074.05
2018-12-11T03:08:41.945Z,99068.55
2018-12-11T03:10:48.608Z,99070.82
2018-12-11T03:12:55.724Z,99070.73
2018-12-11T03:15:02.518Z,99072.30
2018-12-11T03:17:09.552Z,99067.19
2018-12-11T03:19:16.463Z,99080.50
2018-12-11T03:21:23.556Z,99068.55
2018-12-11T03:23:31.641Z,99075.43
2018-12-11T03:25:39.337Z,99074.16
2018-12-11T03:27:46.488Z,99069.92
2018-12-11T03:29:53.445Z,99066.48
2018-12-11T03:32:00.841Z,99063.99
2018-12-11T03:34:07.829Z,99060.67
2018-12-11T03:36:14.564Z,99054.13
2018-12-11T03:38:21.178Z,99051.59
2018-12-11T03:40:28.165Z,99050.64
2018-12-11T03:42:35.010Z,99048.66
2018-12-11T03:44:42.084Z,99047.31
2018-12-11T03:46:48.855Z,99038.16
2018-12-11T03:48:55.813Z,99036.11
2018-12-11T03:51:03.198Z,99034.73
2018-12-11T03:53:10.724Z,99030.93
2018-12-11T03:55:17.699Z,99028.41
2018-12-11T03:57:24.685Z,99019.25
2018-12-11T03:59:31.644Z,99026.06
2018-12-11T04:01:38.592Z,99022.38
2018-12-11T04:03:45.456Z,99018.17
2018-12-11T04:05:52.759Z,99019.91
2018-12-11T04:07:59.404Z,99024.04
2018-12-11T04:10:06.173Z,99020.26
2018-12-11T04:12:13.638Z,99027.69
2018-12-11T04:14:20.876Z,99013.16
2018-12-11T04:16:28.300Z,99007.81
2018-12-11T04:18:35.495Z,99005.72
2018-12-11T04:20:42.389Z,99015.37
2018-12-11T04:22:49.258Z,99008.48
2018-12-11T04:24:56.145Z,99010.66
2018-12-11T04:27:02.968Z,99008.17
2018-12-11T04:29:09.930Z,99009.41
2018-12-11T04:31:16.630Z,99000.94
2018-12-11T04:33:23.459Z,99008.62
2018-12-11T04:35:30.341Z,99012.91
2018-12-11T04:37:36.989Z,99007.34
2018-12-11T04:39:43.970Z,98998.17
2018-12-11T04:41:51.091Z,99000.57
2018-12-11T04:43:57.988Z,99003.20
2018-12-11T04:46:04.827Z,99003.11
2018-12-11T04:48:11.613Z,99000.37
2018-12-11T04:50:18.418Z,98997.36
2018-12-11T04:52:25.422Z,98990.89
2018-12-11T04:54:32.285Z,98989.59
2018-12-11T04:56:39.001Z,98993.45
2018-12-11T04:58:45.884Z,98987.73
2018-12-11T05:00:52.371Z,98980.42
2018-12-11T05:02:59.234Z,98978.29
2018-12-11T05:05:06.393Z,98982.93
2018-12-11T05:07:13.058Z,98984.23
2018-12-11T05:09:19.810Z,98991.11
2018-12-11T05:11:26.843Z,98992.19
2018-12-11T05:13:33.485Z,98983.38
2018-12-11T05:15:40.253Z,98986.55
2018-12-11T05:17:47.124Z,98984.12
2018-12-11T05:19:53.801Z,98981.03
2018-12-11T05:22:00.682Z,98974.20
2018-12-11T05:24:07.312Z,98981.92
2018-12-11T05:26:14.176Z,98976.53
2018-12-11T05:28:20.823Z,98976.98
2018-12-11T05:30:27.549Z,98979.08
2018-12-11T05:32:34.286Z,98975.33
2018-12-11T05:34:41.338Z,98972.84
2018-12-11T05:36:47.969Z,98975.86
2018-12-11T05:38:54.886Z,98971.28
2018-12-11T05:41:01.680Z,98974.81
2018-12-11T05:43:08.692Z,98975.28
2018-12-11T05:45:16.166Z,98977.04
2018-12-11T05:47:23.098Z,98976.23
2018-12-11T05:49:29.889Z,98968.79
2018-12-11T05:51:37.280Z,98973.95
2018-12-11T05:53:45.006Z,98968.40
2018-12-11T05:55:51.881Z,98964.86
2018-12-11T05:57:58.686Z,98962.82
2018-12-11T06:00:05.605Z,98959.98
2018-12-11T06:02:12.371Z,98967.52
2018-12-11T06:04:19.226Z,98963.31
2018-12-11T06:06:25.777Z,98964.07
2018-12-11T06:10:53.361Z,98962.88
2018-12-11T06:13:00.169Z,98963.22
2018-12-11T06:15:07.673Z,98951.72
2018-12-11T06:17:14.994Z,98949.94
2018-12-11T06:19:21.734Z,98943.08
2018-12-11T06:21:28.806Z,98945.97
2018-12-11T06:23:35.643Z,98945.06
2018-12-11T06:25:42.841Z,98943.78
2018-12-11T06:27:49.409Z,98942.39
2018-12-11T06:29:56.071Z,98942.77
2018-12-11T06:32:03.047Z,98932.86
2018-12-11T06:34:09.570Z,98932.77
2018-12-11T06:36:16.457Z,98931.02
2018-12-11T06:38:23.265Z,98931.59
2018-12-11T06:40:30.146Z,98929.90
2018-12-11T06:42:36.739Z,98922.64
2018-12-11T06:44:43.641Z,98926.44
2018-12-11T06:46:50.337Z,98932.52
2018-12-11T06:48:57.253Z,98928.79
2018-12-11T06:51:04.087Z,98934.27
2018-12-11T06:53:10.513Z,98927.00
2018-12-11T06:55:17.056Z,98931.27
2018-12-11T06:57:23.886Z,98936.41
2018-12-11T06:59:31.622Z,98931.05
2018-12-11T07:01:39.240Z,98869.81
2018-12-11T07:03:46.152Z,98921.30
2018-12-11T07:05:53.063Z,98922.27
2018-12-11T07:07:59.971Z,98925.60
2018-12-11T07:10:07.309Z,98919.89
2018-12-11T07:12:14.252Z,98926.26
2018-12-11T07:14:20.929Z,98923.44
2018-12-11T07:16:27.903Z,98917.85
2018-12-11T07:18:35.085Z,98916.11
2018-12-11T07:20:42.126Z,98925.98
2018-12-11T07:22:48.893Z,98921.31
2018-12-11T07:24:57.633Z,98913.50
2018-12-11T07:27:04.329Z,98916.97
2018-12-11T07:29:11.324Z,98917.45
2018-12-11T07:31:18.377Z,98922.80
2018-12-11T07:33:25.245Z,98916.47
2018-12-11T07:35:32.211Z,98915.70
2018-12-11T07:37:39.217Z,98918.94
2018-12-11T07:39:45.985Z,98912.83
2018-12-11T07:41:53.089Z,98917.28
2018-12-11T07:44:00.027Z,98910.52
2018-12-11T07:46:07.317Z,98914.05
2018-12-11T07:48:13.898Z,98909.91
2018-12-11T07:50:20.398Z,98908.34
2018-12-11T07:52:27.079Z,98896.63
2018-12-11T07:54:34.221Z,98891.30
2018-12-11T07:56:41.116Z,98886.20
2018-12-11T07:58:47.917Z,98885.78
2018-12-11T08:00:54.818Z,98888.86
2018-12-11T08:03:01.750Z,98883.91
2018-12-11T08:05:08.798Z,98880.94
2018-12-11T08:07:15.573Z,98883.36
2018-12-11T08:09:22.323Z,98889.72
2018-12-11T08:11:29.341Z,98898.00
2018-12-11T08:13:35.986Z,98889.16
2018-12-11T08:15:43.345Z,98905.63
2018-12-11T08:17:50.106Z,98900.13
2018-12-11T08:19:57.080Z,98895.39
2018-12-11T08:22:04.182Z,98887.72
2018-12-11T08:24:10.898Z,98874.74
2018-12-11T08:26:17.523Z,98879.55
2018-12-11T08:28:24.426Z,98886.00
2018-12-11T08:30:31.354Z,98886.22
2018-12-11T08:32:38.424Z,98892.42
2018-12-11T08:34:45.237Z,98893.48
2018-12-11T08:36:51.855Z,98894.00
2018-12-11T08:38:58.794Z,98889.13
2018-12-11T08:41:05.470Z,98890.69
2018-12-11T08:43:11.937Z,98881.45
2018-12-11T08:45:18.706Z,98887.25
2018-12-11T08:47:25.753Z,98878.44
2018-12-11T08:49:32.870Z,98876.66
2018-12-11T08:51:40.080Z,98874.26
2018-12-11T08:53:47.055Z,98871.94
2018-12-11T08:55:53.961Z,98872.87
2018-12-11T08:58:00.678Z,98877.40
2018-12-11T09:00:08.191Z,98862.81
2018-12-11T09:02:15.104Z,98862.47
2018-12-11T09:04:21.990Z,98858.33
2018-12-11T09:06:28.802Z,98857.17
2018-12-11T09:08:35.702Z,98861.95
2018-12-11T09:10:42.639Z,98853.00
2018-12-11T09:12:49.487Z,98851.89
2018-12-11T09:14:56.113Z,98851.01
2018-12-11T09:17:09.867Z,98861.05
2018-12-11T09:19:12.191Z,98870.75
2018-12-11T09:21:19.134Z,98876.27
2018-12-11T09:23:25.864Z,98867.98
2018-12-11T09:25:33.244Z,98862.80
2018-12-11T09:27:39.889Z,98854.06
2018-12-11T09:29:46.802Z,98860.43
2018-12-11T09:31:53.765Z,98861.05
2018-12-11T09:34:00.640Z,98862.92
2018-12-11T09:36:07.368Z,98867.91
2018-12-11T09:38:15.193Z,98867.98
2018-12-11T09:40:24.661Z,98864.69
2018-12-11T09:42:31.369Z,98861.97
2018-12-11T09:44:38.155Z,98870.44
2018-12-11T09:46:45.106Z,98867.66
2018-12-11T09:48:52.037Z,98862.60
2018-12-11T09:50:58.725Z,98859.90
2018-12-11T09:53:05.507Z,98856.42
2018-12-11T09:55:12.392Z,98861.89
2018-12-11T09:57:19.210Z,98855.13
2018-12-11T09:59:26.121Z,98863.48
2018-12-11T10:01:32.986Z,98854.07
2018-12-11T10:03:39.935Z,98851.39
2018-12-11T10:05:47.150Z,98854.75
2018-12-11T10:07:53.731Z,98862.36
2018-12-11T10:10:00.906Z,98858.44
2018-12-11T10:12:07.889Z,98857.18
2018-12-11T10:14:14.959Z,98852.50
2018-12-11T10:16:22.204Z,98840.86
2018-12-11T10:18:29.227Z,98831.94
2018-12-11T10:20:36.730Z,98824.48
2018-12-11T10:22:43.962Z,98828.45
2018-12-11T10:24:50.878Z,98828.55
2018-12-11T10:26:57.635Z,98831.98
2018-12-11T10:29:04.545Z,98832.38
2018-12-11T10:31:11.629Z,98829.05
2018-12-11T10:33:18.678Z,98830.35
2018-12-11T10:35:25.496Z,98821.30
2018-12-11T10:37:32.234Z,98829.06
2018-12-11T10:39:39.211Z,98822.36
2018-12-11T10:41:45.946Z,98816.05
2018-12-11T10:43:52.721Z,98809.33
2018-12-11T10:45:59.876Z,98799.09
2018-12-11T10:48:07.502Z,98803.79
2018-12-11T10:50:14.915Z,98806.56
2018-12-11T10:52:22.839Z,98811.56
2018-12-11T10:54:29.698Z,98811.90
2018-12-11T10:56:36.347Z,98803.55
2018-12-11T10:58:43.142Z,98810.81
2018-12-11T11:00:54.497Z,98806.30
2018-12-11T11:03:05.631Z,98801.80
2018-12-11T11:05:12.410Z,98800.70
2018-12-11T11:07:19.327Z,98806.53
2018-12-11T11:09:26.123Z,98807.62
2018-12-11T11:11:33.007Z,98804.78
2018-12-11T11:13:40.107Z,98810.25
2018-12-11T11:15:46.874Z,98814.80
2018-12-11T11:17:53.863Z,98813.09
2018-12-11T11:20:00.575Z,98805.03
2018-12-11T11:22:07.221Z,98795.51
2018-12-11T11:24:14.160Z,98790.43
2018-12-11T11:26:21.030Z,98791.61
2018-12-11T11:28:27.896Z,98787.55
2018-12-11T11:30:34.729Z,98781.09
2018-12-11T11:32:41.517Z,98783.71
2018-12-11T11:34:49.047Z,98790.27
2018-12-11T11:36:55.714Z,98791.33
2018-12-11T11:39:02.530Z,98800.39
2018-12-11T11:41:09.467Z,98802.96
2018-12-11T11:43:16.339Z,98787.27
2018-12-11T11:45:23.446Z,98788.46
2018-12-11T11:47:30.113Z,98788.06
2018-12-11T11:49:36.778Z,98789.07
2018-12-11T11:51:43.870Z,98780.73
2018-12-11T11:53:50.701Z,98782.05
2018-12-11T11:55:57.278Z,98785.47
2018-12-11T11:58:04.291Z,98782.27
2018-12-11T12:00:14.348Z,98785.11
2018-12-11T12:02:21.375Z,98793.14
2018-12-11T12:04:28.060Z,98791.38
2018-12-11T12:06:34.874Z,98791.23
2018-12-11T12:08:41.895Z,98796.27
2018-12-11T12:10:49.602Z,98799.38
2018-12-11T12:12:56.322Z,98800.34
2018-12-11T12:15:03.478Z,98798.80
2018-12-11T12:17:10.659Z,98792.38
2018-12-11T12:19:17.667Z,98790.16
2018-12-11T12:21:24.413Z,98796.83
2018-12-11T12:23:31.347Z,98793.34
2018-12-11T12:25:38.958Z,98779.88
2018-12-11T12:27:45.790Z,98783.98
2018-12-11T12:29:52.622Z,98788.30
2018-12-11T12:31:59.579Z,98786.59
2018-12-11T12:34:06.556Z,98792.01
2018-12-11T12:36:13.419Z,98796.36
2018-12-11T12:38:20.110Z,98787.91
2018-12-11T12:40:27.901Z,98796.76
2018-12-11T12:42:34.961Z,98796.42
2018-12-11T12:44:41.929Z,98793.34
2018-12-11T12:46:49.949Z,98787.95
2018-12-11T12:48:56.818Z,98804.98
2018-12-11T12:51:03.697Z,98800.34
2018-12-11T12:53:10.430Z,98800.97
2018-12-11T12:55:17.685Z,98800.70
2018-12-11T12:57:24.390Z,98801.45
2018-12-11T12:59:31.067Z,98797.73
2018-12-11T13:01:37.842Z,98797.61
2018-12-11T13:03:44.880Z,98793.16
2018-12-11T13:05:51.720Z,98790.08
2018-12-11T13:07:58.506Z,98792.49
2018-12-11T13:10:05.442Z,98790.67
2018-12-11T13:12:12.126Z,98792.78
2018-12-11T13:14:19.070Z,98788.48
2018-12-11T13:16:25.993Z,98791.94
2018-12-11T13:18:33.036Z,98790.88
2018-12-11T13:20:40.292Z,98783.92
2018-12-11T13:22:47.146Z,98787.23
2018-12-11T13:24:53.894Z,98791.19
2018-12-11T13:27:00.725Z,98789.13
2018-12-11T13:29:07.528Z,98787.25
2018-12-11T13:31:14.561Z,98789.81
2018-12-11T13:33:21.955Z,98788.23
2018-12-11T13:35:28.902Z,98783.69
2018-12-11T13:37:35.912Z,98790.33
2018-12-11T13:39:42.818Z,98787.31
2018-12-11T13:41:49.451Z,98792.09
2018-12-11T13:43:56.765Z,98780.91
2018-12-11T13:46:03.574Z,98786.44
2018-12-11T13:48:10.833Z,98791.45
2018-12-11T13:50:17.427Z,98786.34
2018-12-11T13:52:24.540Z,98783.92
2018-12-11T13:54:32.128Z,98788.25
2018-12-11T13:56:39.141Z,98793.09
2018-12-11T13:58:46.286Z,98800.56
2018-12-11T14:00:52.922Z,98786.38
2018-12-11T14:03:00.006Z,98791.50
2018-12-11T14:05:07.340Z,98795.80
2018-12-11T14:07:14.418Z,98797.52
2018-12-11T14:09:26.398Z,98796.25
2018-12-11T14:11:34.211Z,98797.91
2018-12-11T14:13:40.963Z,98803.08
2018-12-11T14:15:48.071Z,98800.98
2018-12-11T14:17:54.842Z,98803.73
2018-12-11T14:20:01.628Z,98807.41
2018-12-11T14:22:08.683Z,98803.13
2018-12-11T14:24:16.111Z,98806.56
2018-12-11T14:26:23.002Z,98798.97
2018-12-11T14:28:30.925Z,98796.67
2018-12-11T14:30:38.390Z,98794.13
2018-12-11T14:32:45.530Z,98794.27
2018-12-11T14:34:52.766Z,98791.20
2018-12-11T14:36:59.823Z,98795.14
2018-12-11T14:39:07.110Z,98794.21
2018-12-11T14:41:14.092Z,98793.91
2018-12-11T14:43:20.994Z,98795.73
2018-12-11T14:45:27.742Z,98797.09
2018-12-11T14:47:35.125Z,98800.39
2018-12-11T14:49:42.509Z,98801.38
2018-12-11T14:51:50.340Z,98815.30
2018-12-11T14:53:57.926Z,98805.65
2018-12-11T14:56:05.522Z,98814.31
2018-12-11T14:58:12.528Z,98822.60
2018-12-11T15:00:19.303Z,98813.10
2018-12-11T15:02:26.217Z,98815.82
2018-12-11T15:04:33.160Z,98814.51
2018-12-11T15:06:40.181Z,98816.13
2018-12-11T15:08:46.854Z,98816.17
2018-12-11T15:10:53.542Z,98816.43
2018-12-11T15:13:00.393Z,98813.07
2018-12-11T15:15:08.147Z,98816.75
2018-12-11T15:17:16.010Z,98820.73
2018-12-11T15:19:22.809Z,98827.30
2018-12-11T15:21:30.117Z,98829.80
2018-12-11T15:23:37.542Z,98817.94
2018-12-11T15:25:44.352Z,98823.03
2018-12-11T15:27:51.854Z,98827.43
2018-12-11T15:29:59.330Z,98825.38
2018-12-11T15:32:06.069Z,98827.34
2018-12-11T15:34:12.983Z,98826.67
2018-12-11T15:36:20.214Z,98828.91
2018-12-11T15:38:27.537Z,98824.84
2018-12-11T15:40:34.785Z,98836.74
2018-12-11T15:42:41.997Z,98835.86
2018-12-11T15:44:49.012Z,98834.51
2018-12-11T15:46:56.859Z,98837.43
2018-12-11T15:49:03.898Z,98789.00
2018-12-11T15:51:10.666Z,98828.32
2018-12-11T15:53:17.963Z,98832.28
2018-12-11T15:55:25.314Z,98821.83
2018-12-11T15:57:32.105Z,98829.32
2018-12-11T15:59:39.539Z,98824.98
2018-12-11T16:01:46.843Z,98823.42
2018-12-11T16:03:54.335Z,98815.86
2018-12-11T16:06:01.273Z,98809.82
2018-12-11T16:08:07.972Z,98809.20
2018-12-11T16:10:14.945Z,98806.39
2018-12-11T16:12:21.876Z,98802.57
2018-12-11T16:14:29.550Z,98799.98
2018-12-11T16:16:36.789Z,98803.70
2018-12-11T16:18:43.809Z,98802.11
2018-12-11T16:20:50.794Z,98791.07
2018-12-11T16:22:58.703Z,98792.27
2018-12-11T16:25:05.581Z,98790.38
2018-12-11T16:27:13.206Z,98789.39
2018-12-11T16:29:20.286Z,98779.47
2018-12-11T16:31:27.000Z,98778.41
2018-12-11T16:33:33.777Z,98783.90
2018-12-11T16:35:40.602Z,98771.04
2018-12-11T16:37:47.596Z,98770.91
2018-12-11T16:39:54.802Z,98770.08
2018-12-11T16:42:02.221Z,98777.94
2018-12-11T16:44:09.591Z,98771.92
2018-12-11T16:46:16.510Z,98777.73
2018-12-11T16:48:23.931Z,98758.78
2018-12-11T16:50:31.754Z,98758.67
2018-12-11T16:52:38.626Z,98755.08
2018-12-11T16:54:45.876Z,98755.50
2018-12-11T16:56:53.621Z,98755.97
2018-12-11T16:59:00.922Z,98761.26
2018-12-11T17:01:08.181Z,98753.08
2018-12-11T17:03:15.290Z,98753.36
2018-12-11T17:05:22.590Z,98749.18
2018-12-11T17:07:29.557Z,98736.13
2018-12-11T17:09:39.678Z,98743.76
2018-12-11T17:11:47.142Z,98735.70
2018-12-11T17:13:54.052Z,98737.92
2018-12-11T17:16:00.925Z,98733.22
2018-12-11T17:18:07.946Z,98727.21
2018-12-11T17:20:15.791Z,98712.84
2018-12-11T17:22:22.522Z,98717.00
2018-12-11T17:24:29.194Z,98711.81
2018-12-11T17:26:36.382Z,98722.00
2018-12-11T17:28:43.593Z,98722.14
2018-12-11T17:30:50.975Z,98719.96
2018-12-11T17:32:58.186Z,98715.00
2018-12-11T17:35:05.371Z,98718.48
2018-12-11T17:37:12.598Z,98722.84
2018-12-11T17:39:19.370Z,98716.73
2018-12-11T17:41:26.747Z,98704.12
2018-12-11T17:43:34.160Z,98695.75
2018-12-11T17:45:40.886Z,98709.62
2018-12-11T17:47:48.192Z,98702.80
2018-12-11T17:49:55.335Z,98704.40
2018-12-11T17:52:02.593Z,98698.53
2018-12-11T17:54:10.274Z,98692.39
2018-12-11T17:56:17.416Z,98688.33
2018-12-11T17:58:24.554Z,98690.30
2018-12-11T18:00:31.377Z,98685.78
2018-12-11T18:02:40.030Z,98691.97
2018-12-11T18:04:47.205Z,98690.08
2018-12-11T18:06:54.598Z,98682.19
2018-12-11T18:09:01.837Z,98681.20
2018-12-11T18:11:09.134Z,98676.72
2018-12-11T18:13:16.318Z,98677.45
2018-12-11T18:15:23.765Z,98679.19
2018-12-11T18:17:30.942Z,98685.20
2018-12-11T18:19:37.825Z,98673.89
2018-12-11T18:21:45.502Z,98674.15
2018-12-11T18:23:52.317Z,98672.86
2018-12-11T18:25:59.322Z,98681.09
2018-12-11T18:28:06.576Z,98677.46
2018-12-11T18:30:13.994Z,98677.02
2018-12-11T18:32:25.072Z,98675.03
2018-12-11T18:34:30.140Z,98674.30
2018-12-11T18:36:37.141Z,98676.13
2018-12-11T18:38:44.462Z,98664.15
2018-12-11T18:40:51.481Z,98663.60
2018-12-11T18:42:58.386Z,98665.22
2018-12-11T18:45:05.975Z,98672.26
2018-12-11T18:47:12.727Z,98676.36
2018-12-11T18:49:19.704Z,98668.64
2018-12-11T18:51:27.256Z,98674.66
2018-12-11T18:53:34.022Z,98665.91
2018-12-11T18:55:41.343Z,98668.49
2018-12-11T18:57:48.189Z,98662.67
2018-12-11T18:59:55.197Z,98664.84
2018-12-11T19:02:02.172Z,98672.75
2018-12-11T19:04:08.943Z,98667.03
2018-12-11T19:06:15.838Z,98668.55
2018-12-11T19:08:23.809Z,98671.97
2018-12-11T19:10:30.992Z,98664.41
2018-12-11T19:12:38.362Z,98655.31
2018-12-11T19:14:45.496Z,98646.05
2018-12-11T19:16:52.783Z,98646.16
2018-12-11T19:18:59.975Z,98650.64
2018-12-11T19:21:06.946Z,98658.25
2018-12-11T19:23:54.036Z,98645.17
2018-12-11T19:26:01.322Z,98648.33
2018-12-11T19:28:08.659Z,98645.32
2018-12-11T19:30:15.853Z,98646.63
2018-12-11T19:32:23.400Z,98651.33
2018-12-11T19:34:30.404Z,98644.80
2018-12-11T19:36:37.199Z,98648.41
2018-12-11T19:38:44.271Z,98644.02
2018-12-11T19:40:51.070Z,98631.75
2018-12-11T19:42:58.103Z,98630.11
2018-12-11T19:45:04.902Z,98634.66
2018-12-11T19:47:11.923Z,98643.38
2018-12-11T19:49:18.781Z,98637.37
2018-12-11T19:51:25.911Z,98632.59
2018-12-11T19:53:32.872Z,98626.82
2018-12-11T19:55:39.685Z,98626.43
2018-12-11T19:57:46.369Z,98631.91
2018-12-11T19:59:53.385Z,98646.19
2018-12-11T20:02:00.871Z,98649.98
2018-12-11T20:04:07.694Z,98657.08
2018-12-11T20:06:15.505Z,98667.92
2018-12-11T20:08:22.567Z,98673.18
2018-12-11T20:10:30.357Z,98666.98
2018-12-11T20:12:37.431Z,98665.00
2018-12-11T20:14:44.378Z,98669.98
2018-12-11T20:16:51.040Z,98667.80
2018-12-11T20:18:57.641Z,98674.02
2018-12-11T20:21:04.617Z,98669.65
2018-12-11T20:23:11.330Z,98673.66
2018-12-11T20:25:18.495Z,98676.33
2018-12-11T20:27:25.398Z,98672.88
2018-12-11T20:29:32.304Z,98680.23
2018-12-11T20:31:39.139Z,98674.39
2018-12-11T20:33:45.965Z,98674.86
2018-12-11T20:35:53.087Z,98678.05
2018-12-11T20:37:59.830Z,98683.47
2018-12-11T20:40:06.799Z,98681.34
2018-12-11T20:42:13.513Z,98679.40
2018-12-11T20:44:20.551Z,98681.14
2018-12-11T20:46:27.310Z,98692.28
2018-12-11T20:48:34.320Z,98679.57
2018-12-11T20:50:41.133Z,98683.45
2018-12-11T20:52:48.386Z,98684.58
2018-12-11T20:54:54.974Z,98678.33
2018-12-11T20:57:01.545Z,98680.63
2018-12-11T20:59:09.158Z,98681.14
2018-12-11T21:01:16.317Z,98678.75
2018-12-11T21:03:23.112Z,98685.32
2018-12-11T21:05:29.788Z,98687.76
2018-12-11T21:07:36.798Z,98695.52
2018-12-11T21:09:43.734Z,98690.93
2018-12-11T21:11:50.812Z,98689.41
2018-12-11T21:13:58.005Z,98691.14
2018-12-11T21:16:10.847Z,98695.42
2018-12-11T21:18:14.055Z,98688.98
2018-12-11T21:20:21.066Z,98691.61
2018-12-11T21:22:28.164Z,98688.84
2018-12-11T21:24:35.591Z,98687.81
2018-12-11T21:26:43.147Z,98685.05
2018-12-11T21:28:50.173Z,98689.39
2018-12-11T21:30:57.306Z,98681.78
2018-12-11T21:33:04.171Z,98688.33
2018-12-11T21:35:11.976Z,98696.02
2018-12-11T21:37:19.040Z,98696.85
2018-12-11T21:39:25.887Z,98699.45
2018-12-11T21:41:32.861Z,98693.84
2018-12-11T21:43:39.779Z,98698.63
2018-12-11T21:45:46.819Z,98698.98
2018-12-11T21:47:53.824Z,98700.56
2018-12-11T21:50:01.053Z,98702.59
2018-12-11T21:52:08.180Z,98698.77
2018-12-11T21:55:28.793Z,98695.75
2018-12-11T21:57:35.711Z,98704.10
2018-12-11T21:59:42.871Z,98708.02
2018-12-11T22:01:49.749Z,98721.89
2018-12-11T22:04:00.488Z,98715.02
2018-12-11T22:06:07.803Z,98709.22
2018-12-11T22:08:14.562Z,98698.16
2018-12-11T22:10:21.501Z,98695.21
2018-12-11T22:12:29.252Z,98692.80
2018-12-11T22:14:36.312Z,98697.99
2018-12-11T22:16:43.166Z,98692.72
2018-12-11T22:18:50.226Z,98700.66
2018-12-11T22:20:57.238Z,98704.11
2018-12-11T22:23:04.800Z,98706.34
2018-12-11T22:25:11.830Z,98671.53
2018-12-11T22:27:18.809Z,98709.86
2018-12-11T22:29:25.987Z,98711.33
2018-12-11T22:31:34.062Z,98710.92
2018-12-11T22:33:41.108Z,98709.72
2018-12-11T22:35:48.105Z,98711.03
2018-12-11T22:37:55.233Z,98707.44
2018-12-11T22:40:02.229Z,98708.05
2018-12-11T22:42:10.109Z,98710.36
2018-12-11T22:44:18.193Z,98717.06
2018-12-11T22:46:25.160Z,98710.36
2018-12-11T22:48:33.506Z,98717.00
2018-12-11T22:50:40.826Z,98726.45
2018-12-11T22:52:48.054Z,98725.92
2018-12-11T22:54:55.165Z,98716.95
2018-12-11T22:57:01.993Z,98724.80
2018-12-11T22:59:08.914Z,98723.64
2018-12-11T23:01:15.693Z,98730.90
2018-12-11T23:03:22.509Z,98733.70
2018-12-11T23:05:29.541Z,98739.95
2018-12-11T23:07:36.350Z,98734.85
2018-12-11T23:09:47.133Z,98737.86
2018-12-11T23:11:54.417Z,98734.97
2018-12-11T23:14:01.294Z,98729.69
2018-12-11T23:16:08.281Z,98712.03
2018-12-11T23:18:15.102Z,98716.39
2018-12-11T23:20:22.237Z,98719.61
2018-12-11T23:22:29.588Z,98729.91
2018-12-11T23:24:37.335Z,98732.36
2018-12-11T23:26:44.637Z,98741.44
2018-12-11T23:28:51.646Z,98735.77
2018-12-11T23:30:58.286Z,98738.08
2018-12-11T23:33:05.356Z,98740.02
2018-12-11T23:35:12.206Z,98736.16
2018-12-11T23:37:19.034Z,98738.36
2018-12-11T23:39:25.912Z,98741.22
2018-12-11T23:41:33.190Z,98748.51
2018-12-11T23:43:40.450Z,98760.83
2018-12-11T23:45:47.165Z,98769.95
2018-12-11T23:47:54.064Z,98763.63
2018-12-11T23:50:00.928Z,98766.91
2018-12-11T23:52:07.975Z,98768.94
2018-12-11T23:54:14.262Z,98762.16
2018-12-11T23:56:20.996Z,98758.03
2018-12-11T23:58:27.879Z,98759.86
